createdAt,value
2019-04-22T00:00:06.722Z,17.00
2019-04-22T00:02:43.527Z,17.00
2019-04-22T00:05:18.854Z,17.00
2019-04-22T00:08:01.634Z,16.90
2019-04-22T00:10:39.529Z,16.90
2019-04-22T00:13:10.957Z,16.90
2019-04-22T00:15:32.551Z,16.90
2019-04-22T00:18:13.396Z,16.80
2019-04-22T00:20:43.901Z,16.80
2019-04-22T00:23:19.449Z,16.70
2019-04-22T00:28:23.021Z,16.70
2019-04-22T00:30:56.155Z,16.70
2019-04-22T00:33:25.068Z,16.70
2019-04-22T00:35:54.597Z,16.60
2019-04-22T00:38:35.686Z,16.50
2019-04-22T00:41:00.572Z,16.60
2019-04-22T00:43:33.337Z,16.60
2019-04-22T00:45:55.452Z,16.60
2019-04-22T00:48:34.402Z,16.60
2019-04-22T00:51:06.126Z,16.50
2019-04-22T00:53:36.085Z,16.50
2019-04-22T00:58:41.349Z,16.50
2019-04-22T01:01:19.155Z,16.50
2019-04-22T01:03:50.980Z,16.40
2019-04-22T01:06:17.275Z,16.40
2019-04-22T01:08:56.407Z,16.30
2019-04-22T01:11:25.113Z,16.30
2019-04-22T01:13:53.312Z,16.20
2019-04-22T01:16:26.234Z,16.30
2019-04-22T01:18:55.912Z,16.30
2019-04-22T01:21:30.333Z,16.30
2019-04-22T01:23:55.132Z,16.20
2019-04-22T01:26:25.931Z,16.20
2019-04-22T01:28:53.912Z,16.20
2019-04-22T01:31:19.372Z,16.20
2019-04-22T01:33:58.603Z,16.10
2019-04-22T01:36:38.428Z,16.10
2019-04-22T01:39:09.165Z,16.10
2019-04-22T01:41:49.031Z,16.10
2019-04-22T01:44:24.218Z,16.10
2019-04-22T01:49:25.596Z,16.10
2019-04-22T01:51:58.614Z,16.10
2019-04-22T01:54:29.509Z,16.00
2019-04-22T01:56:53.980Z,16.00
2019-04-22T01:59:19.853Z,16.00
2019-04-22T02:01:55.116Z,16.00
2019-04-22T02:04:32.447Z,16.00
2019-04-22T02:07:07.161Z,16.00
2019-04-22T02:09:38.044Z,15.90
2019-04-22T02:12:05.994Z,15.90
2019-04-22T02:14:39.907Z,15.90
2019-04-22T02:17:14.492Z,15.80
2019-04-22T02:19:35.942Z,15.80
2019-04-22T02:22:11.541Z,15.80
2019-04-22T02:27:17.402Z,15.80
2019-04-22T02:32:33.876Z,15.70
2019-04-22T02:35:02.010Z,15.70
2019-04-22T02:37:21.175Z,15.70
2019-04-22T02:39:57.615Z,15.70
2019-04-22T02:42:16.393Z,15.70
2019-04-22T02:50:02.410Z,15.70
2019-04-22T02:55:01.372Z,15.60
2019-04-22T02:57:35.248Z,15.60
2019-04-22T03:00:07.421Z,15.60
2019-04-22T03:02:41.529Z,15.60
2019-04-22T03:05:10.587Z,15.60
2019-04-22T03:07:41.831Z,15.60
2019-04-22T03:10:12.137Z,15.60
2019-04-22T03:12:35.266Z,15.60
2019-04-22T03:15:09.679Z,15.60
2019-04-22T03:20:11.506Z,15.50
2019-04-22T03:22:47.442Z,15.50
2019-04-22T03:30:48.255Z,15.40
2019-04-22T03:37:56.023Z,15.30
2019-04-22T03:40:46.384Z,15.30
2019-04-22T03:43:20.435Z,15.30
2019-04-22T03:50:42.502Z,15.20
2019-04-22T03:55:43.564Z,15.30
2019-04-22T03:58:28.392Z,15.20
2019-04-22T04:03:12.086Z,15.10
2019-04-22T04:08:21.694Z,15.00
2019-04-22T04:10:48.008Z,15.00
2019-04-22T04:13:28.532Z,15.00
2019-04-22T04:15:46.606Z,15.00
2019-04-22T04:18:18.795Z,15.00
2019-04-22T04:21:14.526Z,15.00
2019-04-22T04:25:52.498Z,14.90
2019-04-22T04:31:03.007Z,14.90
2019-04-22T04:36:03.555Z,14.90
2019-04-22T04:38:36.590Z,14.90
2019-04-22T04:41:23.495Z,14.80
2019-04-22T04:43:47.980Z,14.70
2019-04-22T04:46:16.534Z,14.70
2019-04-22T04:49:00.985Z,14.80
2019-04-22T04:51:15.952Z,14.80
2019-04-22T04:53:52.770Z,14.70
2019-04-22T04:58:56.018Z,14.70
2019-04-22T05:04:06.121Z,14.80
2019-04-22T05:06:29.882Z,14.70
2019-04-22T05:11:24.822Z,14.80
2019-04-22T05:16:32.494Z,14.90
2019-04-22T05:26:28.007Z,15.00
2019-04-22T05:28:58.947Z,15.00
2019-04-22T05:31:32.227Z,15.10
2019-04-22T05:33:56.384Z,15.10
2019-04-22T05:36:30.097Z,15.10
2019-04-22T05:39:00.044Z,15.20
2019-04-22T05:41:31.470Z,15.20
2019-04-22T05:44:02.801Z,15.30
2019-04-22T05:46:34.412Z,15.30
2019-04-22T05:49:07.064Z,15.30
2019-04-22T05:51:38.522Z,15.30
2019-04-22T05:54:14.703Z,15.40
2019-04-22T05:56:47.675Z,15.40
2019-04-22T05:59:11.773Z,15.50
2019-04-22T06:04:20.194Z,15.60
2019-04-22T06:06:46.881Z,15.60
2019-04-22T06:09:24.581Z,15.60
2019-04-22T06:11:46.193Z,15.70
2019-04-22T06:14:20.318Z,15.70
2019-04-22T06:16:58.673Z,15.70
2019-04-22T06:19:25.358Z,15.80
2019-04-22T06:22:04.300Z,15.90
2019-04-22T06:24:50.477Z,15.80
2019-04-22T06:27:10.229Z,15.80
2019-04-22T06:29:30.149Z,15.90
2019-04-22T06:32:23.332Z,15.90
2019-04-22T06:34:35.824Z,15.90
2019-04-22T06:37:16.008Z,16.00
2019-04-22T06:39:39.587Z,16.20
2019-04-22T06:42:19.238Z,16.30
2019-04-22T06:44:45.732Z,16.30
2019-04-22T06:47:15.060Z,16.40
2019-04-22T06:49:49.486Z,16.50
2019-04-22T06:52:18.289Z,16.50
2019-04-22T06:54:50.504Z,16.50
2019-04-22T06:57:19.636Z,16.50
2019-04-22T06:59:51.817Z,16.60
2019-04-22T07:02:24.013Z,16.60
2019-04-22T07:04:56.397Z,16.70
2019-04-22T07:07:29.296Z,16.80
2019-04-22T07:10:01.387Z,16.90
2019-04-22T07:15:02.955Z,16.90
2019-04-22T07:17:39.300Z,17.00
2019-04-22T07:19:58.477Z,17.00
2019-04-22T07:22:45.242Z,17.10
2019-04-22T07:25:04.347Z,17.10
2019-04-22T07:27:27.874Z,17.30
2019-04-22T07:30:09.250Z,17.30
2019-04-22T07:33:00.692Z,17.40
2019-04-22T07:35:19.518Z,17.40
2019-04-22T07:38:00.305Z,17.50
2019-04-22T07:40:10.206Z,17.50
2019-04-22T07:42:43.569Z,17.40
2019-04-22T07:45:22.694Z,17.30
2019-04-22T07:50:30.802Z,17.60
2019-04-22T07:52:44.968Z,17.60
2019-04-22T07:55:18.368Z,17.70
2019-04-22T07:57:52.023Z,17.80
2019-04-22T08:00:28.117Z,17.80
2019-04-22T08:02:59.736Z,17.90
2019-04-22T08:08:10.973Z,18.00
2019-04-22T08:12:59.097Z,18.10
2019-04-22T08:15:35.977Z,18.20
2019-04-22T08:18:04.975Z,18.20
2019-04-22T08:23:09.656Z,18.40
2019-04-22T08:25:38.873Z,18.40
2019-04-22T08:28:17.428Z,18.50
2019-04-22T08:30:48.964Z,18.50
2019-04-22T08:33:23.710Z,18.50
2019-04-22T08:38:28.157Z,18.60
2019-04-22T08:41:31.895Z,18.70
2019-04-22T08:48:55.768Z,18.70
2019-04-22T08:51:28.235Z,18.80
2019-04-22T08:54:18.383Z,18.90
2019-04-22T08:56:35.087Z,18.90
2019-04-22T08:59:10.998Z,18.90
2019-04-22T09:01:41.935Z,19.00
2019-04-22T09:04:07.196Z,19.10
2019-04-22T09:06:58.208Z,19.20
2019-04-22T09:14:22.590Z,19.40
2019-04-22T09:16:45.940Z,19.50
2019-04-22T09:19:12.566Z,19.50
2019-04-22T09:24:21.314Z,19.60
2019-04-22T09:26:47.657Z,19.60
2019-04-22T09:31:56.193Z,19.70
2019-04-22T09:34:22.577Z,19.70
2019-04-22T09:36:50.366Z,19.80
2019-04-22T09:39:29.403Z,19.90
2019-04-22T09:42:03.027Z,19.90
2019-04-22T09:44:30.871Z,19.90
2019-04-22T09:46:59.971Z,20.00
2019-04-22T09:49:37.009Z,20.00
2019-04-22T09:52:04.633Z,20.10
2019-04-22T09:54:39.946Z,20.20
2019-04-22T09:57:02.200Z,20.20
2019-04-22T09:59:34.808Z,20.30
2019-04-22T10:02:19.743Z,20.40
2019-04-22T10:04:44.916Z,20.50
2019-04-22T10:07:16.493Z,20.60
2019-04-22T10:12:32.274Z,20.60
2019-04-22T10:14:45.666Z,20.70
2019-04-22T10:17:15.462Z,20.70
2019-04-22T10:19:46.817Z,20.70
2019-04-22T10:22:27.483Z,20.80
2019-04-22T10:24:53.321Z,20.90
2019-04-22T10:27:21.314Z,21.00
2019-04-22T10:32:25.579Z,21.00
2019-04-22T10:34:43.626Z,21.10
2019-04-22T10:37:11.808Z,21.10
2019-04-22T10:39:48.309Z,21.10
2019-04-22T10:42:13.445Z,21.20
2019-04-22T10:44:45.167Z,21.20
2019-04-22T10:47:14.095Z,21.30
2019-04-22T10:49:44.490Z,21.30
2019-04-22T10:52:14.012Z,21.40
2019-04-22T10:54:43.662Z,21.30
2019-04-22T10:57:13.970Z,21.40
2019-04-22T10:59:44.769Z,21.40
2019-04-22T11:02:14.428Z,21.50
2019-04-22T11:04:44.037Z,21.50
2019-04-22T11:07:14.906Z,21.60
2019-04-22T11:09:51.755Z,21.60
2019-04-22T11:12:20.699Z,21.70
2019-04-22T11:14:47.700Z,21.70
2019-04-22T11:17:17.686Z,21.70
2019-04-22T11:19:47.907Z,21.70
2019-04-22T11:22:22.934Z,21.80
2019-04-22T11:24:50.684Z,21.80
2019-04-22T11:27:21.163Z,21.90
2019-04-22T11:29:50.750Z,21.90
2019-04-22T11:32:20.355Z,21.90
2019-04-22T11:34:51.122Z,21.90
2019-04-22T11:37:22.415Z,21.90
2019-04-22T11:40:02.122Z,22.00
2019-04-22T11:42:23.918Z,22.00
2019-04-22T11:44:53.454Z,22.10
2019-04-22T11:47:23.385Z,22.10
2019-04-22T11:49:54.494Z,22.20
2019-04-22T11:52:24.744Z,22.10
2019-04-22T11:54:54.870Z,22.20
2019-04-22T11:57:25.351Z,22.10
2019-04-22T11:59:56.557Z,22.20
2019-04-22T12:02:31.164Z,22.20
2019-04-22T12:05:01.903Z,22.20
2019-04-22T12:07:34.787Z,22.30
2019-04-22T12:10:15.165Z,22.30
2019-04-22T12:12:34.640Z,22.40
2019-04-22T12:15:06.374Z,22.40
2019-04-22T12:17:36.279Z,22.40
2019-04-22T12:20:10.236Z,22.50
2019-04-22T12:22:40.949Z,22.50
2019-04-22T12:25:12.504Z,22.60
2019-04-22T12:27:43.126Z,22.60
2019-04-22T12:30:14.768Z,22.70
2019-04-22T12:32:45.549Z,22.80
2019-04-22T12:35:15.668Z,22.80
2019-04-22T12:37:52.853Z,22.90
2019-04-22T12:40:31.443Z,23.00
2019-04-22T12:42:49.170Z,23.10
2019-04-22T12:45:20.448Z,23.10
2019-04-22T12:47:50.452Z,23.20
2019-04-22T12:50:26.051Z,23.20
2019-04-22T12:52:58.960Z,23.20
2019-04-22T12:55:23.828Z,23.30
2019-04-22T12:57:56.994Z,23.30
2019-04-22T13:00:26.351Z,23.40
2019-04-22T13:02:56.857Z,23.40
2019-04-22T13:05:29.102Z,23.50
2019-04-22T13:07:59.881Z,23.50
2019-04-22T13:10:40.657Z,23.60
2019-04-22T13:13:00.983Z,23.50
2019-04-22T13:15:30.890Z,23.60
2019-04-22T13:18:10.319Z,23.60
2019-04-22T13:20:32.402Z,23.80
2019-04-22T13:23:02.264Z,23.80
2019-04-22T13:25:32.458Z,23.80
2019-04-22T13:28:03.029Z,23.80
2019-04-22T13:30:32.784Z,23.80
2019-04-22T13:33:02.973Z,23.90
2019-04-22T13:35:33.914Z,23.90
2019-04-22T13:38:04.814Z,24.00
2019-04-22T13:40:35.243Z,24.00
2019-04-22T13:43:05.003Z,24.10
2019-04-22T13:45:36.149Z,24.10
2019-04-22T13:48:24.592Z,24.20
2019-04-22T13:51:03.443Z,24.30
2019-04-22T13:53:44.857Z,24.40
2019-04-22T13:56:03.793Z,24.50
2019-04-22T13:58:24.641Z,24.50
2019-04-22T14:00:42.755Z,24.60
2019-04-22T14:03:30.940Z,24.50
2019-04-22T14:06:02.403Z,24.50
2019-04-22T14:08:33.181Z,24.50
2019-04-22T14:11:14.903Z,24.50
2019-04-22T14:13:34.595Z,24.40
2019-04-22T14:16:04.738Z,24.40
2019-04-22T14:18:34.917Z,24.40
2019-04-22T14:21:05.077Z,24.30
2019-04-22T14:23:38.472Z,24.30
2019-04-22T14:26:09.149Z,24.30
2019-04-22T14:28:39.523Z,24.20
2019-04-22T14:31:10.483Z,24.10
2019-04-22T14:33:42.898Z,24.00
2019-04-22T14:36:13.376Z,24.00
2019-04-22T14:38:45.867Z,23.90
2019-04-22T14:41:32.767Z,23.90
2019-04-22T14:44:51.305Z,23.90
2019-04-22T14:46:49.297Z,23.90
2019-04-22T14:49:21.935Z,23.80
2019-04-22T14:51:44.206Z,23.80
2019-04-22T14:54:12.427Z,23.80
2019-04-22T14:56:24.297Z,23.80
2019-04-22T14:58:54.964Z,23.90
2019-04-22T15:01:26.680Z,23.80
2019-04-22T15:03:56.615Z,23.80
2019-04-22T15:06:26.362Z,23.80
2019-04-22T15:08:59.409Z,23.90
2019-04-22T15:11:29.033Z,23.90
2019-04-22T15:14:01.270Z,23.90
2019-04-22T15:17:00.765Z,23.90
2019-04-22T15:19:48.115Z,23.90
2019-04-22T15:22:18.738Z,24.00
2019-04-22T15:24:48.473Z,24.00
2019-04-22T15:27:18.474Z,24.10
2019-04-22T15:29:49.410Z,24.10
2019-04-22T15:32:19.210Z,24.10
2019-04-22T15:34:49.115Z,24.00
2019-04-22T15:37:20.358Z,24.00
2019-04-22T15:39:50.133Z,24.10
2019-04-22T15:42:25.761Z,24.10
2019-04-22T15:44:51.661Z,24.20
2019-04-22T15:47:22.794Z,24.20
2019-04-22T15:49:53.900Z,24.20
2019-04-22T15:52:33.540Z,24.30
2019-04-22T15:54:56.233Z,24.40
2019-04-22T15:57:26.660Z,24.50
2019-04-22T16:00:10.607Z,24.60
2019-04-22T16:02:27.946Z,24.70
2019-04-22T16:04:58.807Z,24.80
2019-04-22T16:07:29.734Z,24.80
2019-04-22T16:09:59.621Z,24.80
2019-04-22T16:12:38.660Z,24.90
2019-04-22T16:15:03.082Z,24.90
2019-04-22T16:17:32.937Z,24.80
2019-04-22T16:20:03.651Z,24.90
2019-04-22T16:22:52.485Z,25.10
2019-04-22T16:25:41.094Z,25.10
2019-04-22T16:28:11.106Z,25.20
2019-04-22T16:30:41.420Z,25.20
2019-04-22T16:33:11.104Z,25.10
2019-04-22T16:35:40.883Z,24.90
2019-04-22T16:38:10.865Z,24.90
2019-04-22T16:40:40.940Z,25.00
2019-04-22T16:43:11.946Z,25.20
2019-04-22T16:45:43.307Z,25.30
2019-04-22T16:48:13.690Z,25.50
2019-04-22T16:50:45.028Z,25.60
2019-04-22T16:53:14.837Z,25.80
2019-04-22T16:55:44.678Z,25.80
2019-04-22T16:58:14.825Z,25.80
2019-04-22T17:00:46.824Z,25.90
2019-04-22T17:03:30.847Z,25.90
2019-04-22T17:06:14.371Z,25.90
2019-04-22T17:08:44.468Z,25.80
2019-04-22T17:11:14.252Z,25.90
2019-04-22T17:13:44.559Z,25.90
2019-04-22T17:16:15.996Z,26.10
2019-04-22T17:18:47.089Z,26.40
2019-04-22T17:21:19.470Z,26.60
2019-04-22T17:23:49.836Z,26.60
2019-04-22T17:26:20.725Z,26.90
2019-04-22T17:28:51.346Z,27.30
2019-04-22T17:31:22.696Z,27.30
2019-04-22T17:33:53.031Z,27.60
2019-04-22T17:36:24.238Z,27.70
2019-04-22T17:39:07.038Z,28.00
2019-04-22T17:41:41.818Z,28.10
2019-04-22T17:44:28.771Z,28.20
2019-04-22T17:46:51.370Z,28.40
2019-04-22T17:49:45.718Z,28.20
2019-04-22T17:57:31.267Z,26.80
2019-04-22T17:59:55.372Z,26.20
2019-04-22T18:02:25.000Z,25.40
2019-04-22T18:04:46.826Z,24.80
2019-04-22T18:07:35.485Z,24.40
2019-04-22T18:12:38.554Z,23.60
2019-04-22T18:15:17.841Z,23.40
2019-04-22T18:17:41.311Z,23.20
2019-04-22T18:20:09.422Z,23.00
2019-04-22T18:22:31.088Z,22.90
2019-04-22T18:25:03.502Z,22.60
2019-04-22T18:27:48.803Z,22.50
2019-04-22T18:30:11.361Z,22.40
2019-04-22T18:32:43.730Z,22.20
2019-04-22T18:35:14.102Z,22.10
2019-04-22T18:37:49.939Z,21.90
2019-04-22T18:40:18.624Z,21.90
2019-04-22T18:42:53.594Z,21.70
2019-04-22T18:45:37.320Z,21.70
2019-04-22T18:47:48.794Z,21.60
2019-04-22T18:50:33.987Z,21.50
2019-04-22T18:53:18.851Z,21.40
2019-04-22T18:55:50.386Z,21.40
2019-04-22T18:58:27.470Z,21.30
2019-04-22T19:00:43.974Z,21.30
2019-04-22T19:03:18.202Z,21.20
2019-04-22T19:06:20.128Z,21.10
2019-04-22T19:08:36.900Z,21.10
2019-04-22T19:11:22.356Z,21.10
2019-04-22T19:13:59.177Z,21.00
2019-04-22T19:16:27.717Z,21.00
2019-04-22T19:18:49.872Z,21.10
2019-04-22T19:21:26.441Z,21.00
2019-04-22T19:23:44.958Z,20.90
2019-04-22T19:26:25.616Z,20.90
2019-04-22T19:28:49.686Z,20.80
2019-04-22T19:31:36.277Z,20.70
2019-04-22T19:33:55.062Z,20.60
2019-04-22T19:36:26.193Z,20.50
2019-04-22T19:38:52.508Z,20.60
2019-04-22T19:41:29.131Z,20.50
2019-04-22T19:43:58.908Z,20.50
2019-04-22T19:46:28.117Z,20.40
2019-04-22T19:49:03.800Z,20.30
2019-04-22T19:54:01.420Z,20.30
2019-04-22T19:56:29.611Z,20.00
2019-04-22T19:59:08.815Z,20.00
2019-04-22T20:02:07.237Z,19.90
2019-04-22T20:05:06.545Z,19.90
2019-04-22T20:07:38.530Z,19.90
2019-04-22T20:10:19.160Z,19.90
2019-04-22T20:12:46.172Z,19.70
2019-04-22T20:15:15.624Z,19.70
2019-04-22T20:18:11.391Z,19.80
2019-04-22T20:20:25.930Z,19.70
2019-04-22T20:22:49.436Z,19.60
2019-04-22T20:25:10.944Z,19.50
2019-04-22T20:27:56.145Z,19.60
2019-04-22T20:30:29.317Z,19.60
2019-04-22T20:32:56.669Z,19.50
2019-04-22T20:35:32.998Z,19.50
2019-04-22T20:38:03.886Z,19.50
2019-04-22T20:40:33.185Z,19.40
2019-04-22T20:43:10.495Z,19.40
2019-04-22T20:45:41.569Z,19.50
2019-04-22T20:47:58.863Z,19.40
2019-04-22T20:50:41.290Z,19.30
2019-04-22T20:53:18.978Z,19.20
2019-04-22T20:55:43.522Z,19.20
2019-04-22T20:58:15.298Z,19.20
2019-04-22T21:00:40.290Z,19.20
2019-04-22T21:03:07.330Z,19.30
2019-04-22T21:05:40.176Z,19.40
2019-04-22T21:08:24.179Z,19.30
2019-04-22T21:10:48.604Z,19.20
2019-04-22T21:13:20.531Z,19.00
2019-04-22T21:15:59.243Z,19.10
2019-04-22T21:18:26.576Z,19.00
2019-04-22T21:21:02.515Z,19.10
2019-04-22T21:23:30.073Z,18.90
2019-04-22T21:26:02.333Z,18.80
2019-04-22T21:28:33.149Z,18.70
2019-04-22T21:31:02.769Z,18.70
2019-04-22T21:33:31.809Z,18.90
2019-04-22T21:36:23.567Z,19.20
2019-04-22T21:38:42.448Z,19.60
2019-04-22T21:41:10.109Z,19.50
2019-04-22T21:43:42.527Z,19.70
2019-04-22T21:46:32.409Z,19.80
2019-04-22T21:48:46.453Z,19.90
2019-04-22T21:51:19.089Z,19.80
2019-04-22T21:56:35.064Z,19.90
2019-04-22T21:59:10.964Z,19.80
2019-04-22T22:01:49.720Z,19.70
2019-04-22T22:04:11.400Z,19.60
2019-04-22T22:06:38.019Z,19.90
2019-04-22T22:09:15.688Z,19.70
2019-04-22T22:11:48.297Z,19.60
2019-04-22T22:14:18.161Z,19.40
2019-04-22T22:16:42.953Z,19.20
2019-04-22T22:19:25.510Z,19.00
2019-04-22T22:21:58.669Z,19.10
2019-04-22T22:24:27.273Z,19.10
2019-04-22T22:26:55.748Z,19.10
2019-04-22T22:32:02.722Z,19.00
2019-04-22T22:34:28.050Z,19.00
2019-04-22T22:36:53.039Z,19.00
2019-04-22T22:39:23.755Z,19.00
2019-04-22T22:41:44.007Z,19.00
2019-04-22T22:44:20.916Z,18.90
2019-04-22T22:47:06.420Z,18.90
2019-04-22T22:49:39.756Z,19.00
2019-04-22T22:52:30.849Z,18.80
2019-04-22T22:54:39.237Z,19.00
2019-04-22T22:57:17.939Z,18.80
2019-04-22T22:59:46.104Z,18.90
2019-04-22T23:02:14.152Z,18.80
2019-04-22T23:04:47.384Z,18.80
2019-04-22T23:07:22.671Z,18.90
2019-04-22T23:09:48.774Z,18.80
2019-04-22T23:12:32.884Z,18.70
2019-04-22T23:14:50.120Z,18.90
2019-04-22T23:17:07.492Z,18.90
2019-04-22T23:19:38.075Z,19.10
2019-04-22T23:22:14.494Z,19.00
2019-04-22T23:24:58.459Z,19.00
2019-04-22T23:27:34.636Z,18.70
2019-04-22T23:30:23.940Z,18.90
2019-04-22T23:33:03.423Z,18.60
2019-04-22T23:35:49.155Z,18.70
2019-04-22T23:38:21.240Z,18.60
2019-04-22T23:40:55.660Z,18.70
2019-04-22T23:43:34.113Z,18.80
2019-04-22T23:46:02.672Z,19.00
2019-04-22T23:48:45.012Z,18.90
2019-04-22T23:51:22.892Z,18.50
2019-04-22T23:56:27.008Z,18.40
2019-04-22T23:59:02.635Z,18.40
